METAR Data
IDs: Format: Raw Decoded Include TAF

Data at: 0826 UTC 20 Sep 2018

PAWM 200756Z AUTO 09005KT 10SM CLR 07/06 A3005 RMK AO2 SLP179 T00720061
PAWM 200656Z AUTO 14003KT 10SM SCT041 08/06 A3005 RMK AO2 SLP179 T00830056
PAWM 200556Z AUTO 24003KT 10SM CLR 08/06 A3005 RMK AO2 SLP180 T00830056 10111 20083 53001
PAWM 200456Z AUTO 20003KT 10SM CLR 08/06 A3005 RMK AO2 SLP179 T00830061
PAWM 200356Z AUTO 18004KT 10SM CLR 09/07 A3005 RMK AO2 SLP179 T00890067
PAWM 200256Z AUTO 19006KT 10SM CLR 10/07 A3005 RMK AO2 SLP178 T01000067 56002
PAWM 200156Z AUTO 00000KT 10SM CLR 11/03 A3005 RMK AO2 SLP179 T01060033
PAWM 200056Z AUTO 32003KT 10SM CLR 11/04 A3004 RMK AO2 SLP174 T01060039
PAWM 192356Z AUTO 32003KT 10SM FEW018 11/05 A3006 RMK AO2 SLP181 T01060050 10106 20061 56002
PAWM 192256Z AUTO 36004KT 9SM FEW011 09/07 A3006 RMK AO2 SLP183 T00890067
PAWM 192243Z AUTO 36004KT 10SM SCT011 09/07 A3006 RMK AO2
PAWM 192231Z AUTO 01006KT 10SM BKN011 08/07 A3006 RMK AO2
PAWM 192156Z AUTO 33005KT 10SM BKN007 08/07 A3006 RMK AO2 CIG 006V010 SLP183 T00830067
PAWM 192103Z AUTO 33007KT 9SM OVC005 08/07 A3006 RMK AO2
PAWM 192056Z AUTO 32006KT 9SM BKN003 OVC095 08/07 A3006 RMK AO2 SLP184 T00780067 51002
PAWM 192011Z AUTO 33006KT 9SM BKN003 BKN012 07/07 A3006 RMK AO2
PAWM 191956Z AUTO 33005KT 9SM BKN001 OVC012 07/07 A3006 RMK AO2 SLP184 T00720067
PAWM 191948Z AUTO 32006KT 2 1/2SM BR BKN001 OVC012 07/07 A3006 RMK AO2 VIS 3/4V5
PAWM 191945Z AUTO 32006KT 1SM BR BKN001 OVC012 07/07 A3006 RMK AO2 VIS 1/4V5
PAWM 191937Z AUTO 32005KT 3/4SM BR SCT001 OVC012 07/07 A3006 RMK AO2 VIS 1/4V5
PAWM 191935Z AUTO 32006KT 1 1/4SM BR SCT001 OVC012 07/07 A3006 RMK AO2 VIS 1/4V5
PAWM 191910Z AUTO 34005KT 9SM FEW001 OVC010 07/07 A3006 RMK AO2
PAWM 191903Z AUTO 35005KT 9SM FEW001 OVC008 07/07 A3006 RMK AO2
PAWM 191839Z AUTO 35007KT 2SM BR FEW001 OVC008 07/07 A3006 RMK AO2 CIG 005V010
PAWM 191837Z AUTO 35006KT 3/4SM BR SCT001 OVC008 07/07 A3006 RMK AO2 CIG 004V010
PAWM 191818Z AUTO 35007KT 1/4SM FG BKN003 OVC008 07/06 A3006 RMK AO2 CIG 002V006
PAWM 191756Z AUTO 35007KT 1/4SM FG OVC001 06/06 A3006 RMK AO2 SLP183 60018 T00610061 10072 20061 55000
PAWM 191656Z AUTO 03003KT 1/4SM FG OVC001 07/07 A3005 RMK AO2 RAE41 SLP180 P0000 T00670067
PAWM 191621Z AUTO 00000KT 1/4SM FG SCT001 OVC020 07/07 A3006 RMK AO2 RAE18 P0000
PAWM 191614Z AUTO 14003KT 1/2SM -RA FG FEW001 OVC020 07/07 A3006 RMK AO2 P0000
PAWM 191556Z AUTO 10003KT 1/2SM -RA FG FEW017 BKN023 OVC048 07/07 A3006 RMK AO2 SLP183 P0005 T00720072
PAWM 191554Z AUTO 00000KT 1/2SM -RA FG FEW017 BKN023 OVC048 07/07 A3006 RMK AO2 P0005
PAWM 191515Z AUTO 13003KT 1/2SM -RA FG FEW001 OVC042 07/07 A3007 RMK AO2 P0002
PAWM 191508Z AUTO 00000KT 1/2SM -RA FG SCT001 BKN029 OVC040 07/07 A3007 RMK AO2 P0001
PAWM 191456Z AUTO 00000KT 1/2SM -RA FG BKN003 BKN010 OVC040 07/07 A3007 RMK AO2 CIG 001V006 SLP186 P0007 60013 T00720072 56012
PAWM 191430Z AUTO 14003KT 1/2SM -RA FG BKN003 BKN007 OVC022 07/07 A3007 RMK AO2 P0003
PAWM 191421Z AUTO 13003KT 3/4SM -RA BR BKN001 BKN007 OVC048 07/07 A3007 RMK AO2 P0003
PAWM 191417Z AUTO 13003KT 1 3/4SM -RA BR BKN001 BKN013 OVC048 07/07 A3007 RMK AO2 CIG 001V007 P0002
PAWM 191409Z AUTO 00000KT 5SM -RA BR FEW003 BKN026 OVC048 07/07 A3008 RMK AO2 P0002
PAWM 191356Z AUTO 00000KT 4SM -RA BR FEW009 SCT022 OVC048 07/07 A3008 RMK AO2 RAB1259 SLP188 P0005 T00720072
PAWM 191350Z AUTO 12003KT 1 1/4SM -RA BR FEW003 SCT011 OVC046 07/07 A3008 RMK AO2 RAB1259 P0005
PAWM 191347Z AUTO 11003KT 3/4SM -RA BR FEW003 SCT011 OVC046 07/07 A3008 RMK AO2 RAB1259 P0005
PAWM 191340Z AUTO 12003KT 3/4SM -RA BR FEW010 OVC046 07/07 A3008 RMK AO2 RAB1259 P0004
PAWM 191332Z AUTO 12003KT 1 1/2SM RA BR FEW022 OVC046 07/07 A3008 RMK AO2 RAB1259 P0003
PAWM 191323Z AUTO 12003KT 1SM RA BR SCT022 OVC046 07/07 A3008 RMK AO2 RAB1259 P0001
PAWM 191315Z AUTO 12003KT 3/4SM -RA BR BKN022 OVC046 07/07 A3009 RMK AO2 RAB1259 P0000
PAWM 191256Z AUTO 11003KT 1/2SM FG FEW001 OVC024 07/07 A3009 RMK AO2 RAE15 SLP193 P0001 T00720067
PAWM 191241Z AUTO 09003KT 3/4SM BR FEW001 OVC024 07/07 A3009 RMK AO2 RAE15 P0001
PAWM 191212Z AUTO 00000KT 1/2SM -RA FG SCT015 BKN028 OVC038 07/07 A3010 RMK AO2 P0001
PAWM 191156Z AUTO 00000KT 1/2SM -RA FG FEW002 BKN014 OVC040 07/07 A3011 RMK AO2 SLP197 P0001 60003 70007 T00720072 10078 20067 56002
PAWM 191126Z AUTO 00000KT 1/2SM -RA FG BKN002 BKN015 OVC024 07/07 A3011 RMK AO2 CIG 001V004 P0001
PAWM 191117Z AUTO 00000KT 3/4SM -RA BR BKN002 OVC030 07/07 A3011 RMK AO2 CIG 001V004 P0001
PAWM 191110Z AUTO 00000KT 1 3/4SM -RA BR BKN002 OVC030 07/07 A3011 RMK AO2 CIG 001V004 P0001
PAWM 191104Z AUTO 14003KT 2 1/2SM -RA BR SCT004 BKN021 OVC033 07/07 A3011 RMK AO2 P0000
PAWM 191056Z AUTO 00000KT 4SM -RA BR FEW004 BKN030 OVC040 07/07 A3011 RMK AO2 RAE00B44 SLP200 P0001 T00720072
PAWM 190956Z AUTO 08005KT 10SM -RA FEW021 SCT036 OVC043 07/07 A3011 RMK AO2 RAB13 SLP200 P0001 T00720067
PAWM 190924Z AUTO 08005KT 8SM -RA SCT020 BKN024 OVC055 07/06 A3012 RMK AO2 RAB13 P0000
PAWM 190856Z AUTO 08005KT 10SM FEW016 BKN050 OVC060 07/06 A3013 RMK AO2 SLP205 60000 T00670061 401110044 58010
PAWM 190845Z AUTO 08004KT 10SM FEW018 BKN055 OVC080 07/06 A3013 RMK AO2
PAWM 190819Z AUTO 10003KT 10SM BKN018 BKN049 OVC075 07/06 A3014 RMK AO2
PAWM 190756Z AUTO 00000KT 10SM FEW049 OVC070 07/06 A3014 RMK AO2 SLP209 T00720061
PAWM 190732Z AUTO 00000KT 10SM FEW019 SCT024 OVC070 07/06 A3014 RMK AO2
PAWM 190715Z AUTO 00000KT 10SM FEW019 BKN024 OVC095 07/06 A3015 RMK AO2
PAWM 190656Z AUTO 21004KT 10SM FEW026 SCT080 OVC095 07/06 A3015 RMK AO2 RAE29 SLP213 P0000 T00720061
PAWM 190556Z AUTO 26006KT 9SM -RA SCT022 BKN032 OVC042 07/06 A3016 RMK AO2 RAB29 SLP216 P0000 60004 T00720061 10111 20072 56006
PAWM 190456Z AUTO 21004KT 9SM OVC095 08/06 A3016 RMK AO2 RAB02E20 SLP216 P0001 T00780061
PAWM 190408Z AUTO 20006KT 5SM -RA BR FEW017 BKN038 OVC055 08/07 A3016 RMK AO2 RAB02 P0000
PAWM 190356Z AUTO 19006KT 10SM BKN026 OVC055 08/07 A3016 RMK AO2 RAE07 SLP217 P0000 T00830067
PAWM 190308Z AUTO 17004KT 10SM FEW017 BKN025 OVC035 08/07 A3017 RMK AO2 RAE07 P0000
PAWM 190256Z AUTO 20005KT 5SM RA BR SCT017 SCT025 OVC036 08/07 A3018 RMK AO2 RAB20 SLP222 P0003 60003 T00780067 57006
PAWM 190156Z AUTO 20012KT 10SM SCT027 OVC046 11/04 A3018 RMK AO2 SLP224 T01060044
PAWM 190056Z AUTO 21010KT 9SM FEW025 SCT032 BKN055 11/04 A3019 RMK AO2 SLP225 T01110044
PAWM 182356Z AUTO 21008KT 9SM CLR 10/06 A3019 RMK AO2 SLP228 60000 T01000056 10100 20056 58006
PAWM 182328Z AUTO 23010KT 9SM SCT020 SCT026 BKN050 10/06 A3020 RMK AO2
PAWM 182312Z AUTO 21004KT 9SM BKN022 BKN042 OVC050 09/06 A3020 RMK AO2
PAWM 182156Z AUTO 19004KT 9SM OVC047 08/07 A3021 RMK AO2 RAE36 SLP232 P0000 T00830067
PAWM 182131Z AUTO 00000KT 10SM -RA FEW016 SCT030 OVC040 08/07 A3021 RMK AO2 P0000
PAWM 182056Z AUTO 26004KT 6SM -RA BR BKN024 BKN029 OVC034 08/06 A3021 RMK AO2 RAB34 SLP234 P0000 60000 T00780061 51009